sensor_id;sensor_type;location;lat;lon;timestamp;P1;durP1;ratioP1;P2;durP2;ratioP2
16442;SDS011;8331;51.654;14.376;2022-11-23T00:02:21;32.63;;;18.60;;
16442;SDS011;8331;51.654;14.376;2022-11-23T00:04:47;28.70;;;18.57;;
16442;SDS011;8331;51.654;14.376;2022-11-23T00:07:14;32.03;;;23.30;;
16442;SDS011;8331;51.654;14.376;2022-11-23T00:09:40;36.23;;;21.20;;
16442;SDS011;8331;51.654;14.376;2022-11-23T00:12:07;30.67;;;19.37;;
16442;SDS011;8331;51.654;14.376;2022-11-23T00:14:34;29.70;;;18.20;;
16442;SDS011;8331;51.654;14.376;2022-11-23T00:17:00;28.70;;;18.60;;
16442;SDS011;8331;51.654;14.376;2022-11-23T00:19:27;30.20;;;18.80;;
16442;SDS011;8331;51.654;14.376;2022-11-23T00:21:54;32.30;;;19.13;;
16442;SDS011;8331;51.654;14.376;2022-11-23T00:24:20;28.50;;;17.83;;
16442;SDS011;8331;51.654;14.376;2022-11-23T00:26:47;28.63;;;17.90;;
16442;SDS011;8331;51.654;14.376;2022-11-23T00:29:14;28.80;;;16.60;;
16442;SDS011;8331;51.654;14.376;2022-11-23T00:31:41;32.27;;;18.93;;
16442;SDS011;8331;51.654;14.376;2022-11-23T00:34:07;30.47;;;18.60;;
16442;SDS011;8331;51.654;14.376;2022-11-23T00:36:34;27.13;;;17.27;;
16442;SDS011;8331;51.654;14.376;2022-11-23T00:39:00;29.90;;;17.40;;
16442;SDS011;8331;51.654;14.376;2022-11-23T00:41:27;29.47;;;18.17;;
16442;SDS011;8331;51.654;14.376;2022-11-23T00:43:54;30.40;;;17.20;;
16442;SDS011;8331;51.654;14.376;2022-11-23T00:46:22;26.73;;;16.63;;
16442;SDS011;8331;51.654;14.376;2022-11-23T00:48:49;31.27;;;18.47;;
16442;SDS011;8331;51.654;14.376;2022-11-23T00:51:17;32.27;;;17.83;;
16442;SDS011;8331;51.654;14.376;2022-11-23T00:53:44;30.03;;;18.03;;
16442;SDS011;8331;51.654;14.376;2022-11-23T00:56:10;31.57;;;18.33;;
16442;SDS011;8331;51.654;14.376;2022-11-23T00:58:37;32.45;;;19.05;;
16442;SDS011;8331;51.654;14.376;2022-11-23T01:01:09;33.20;;;19.37;;
16442;SDS011;8331;51.654;14.376;2022-11-23T01:03:37;29.73;;;18.13;;
16442;SDS011;8331;51.654;14.376;2022-11-23T01:06:10;32.17;;;19.13;;
16442;SDS011;8331;51.654;14.376;2022-11-23T01:08:38;26.90;;;17.33;;
16442;SDS011;8331;51.654;14.376;2022-11-23T01:11:05;28.40;;;17.80;;
16442;SDS011;8331;51.654;14.376;2022-11-23T01:13:34;27.90;;;17.33;;
16442;SDS011;8331;51.654;14.376;2022-11-23T01:16:00;27.00;;;15.87;;
16442;SDS011;8331;51.654;14.376;2022-11-23T01:18:27;25.23;;;15.67;;
16442;SDS011;8331;51.654;14.376;2022-11-23T01:20:53;30.17;;;18.17;;
16442;SDS011;8331;51.654;14.376;2022-11-23T01:23:20;27.77;;;17.37;;
16442;SDS011;8331;51.654;14.376;2022-11-23T01:25:47;32.07;;;18.60;;
16442;SDS011;8331;51.654;14.376;2022-11-23T01:28:20;32.13;;;18.03;;
16442;SDS011;8331;51.654;14.376;2022-11-23T01:30:46;29.63;;;18.37;;
16442;SDS011;8331;51.654;14.376;2022-11-23T01:33:13;24.37;;;16.83;;
16442;SDS011;8331;51.654;14.376;2022-11-23T01:35:39;25.80;;;16.90;;
16442;SDS011;8331;51.654;14.376;2022-11-23T01:38:06;26.57;;;16.93;;
16442;SDS011;8331;51.654;14.376;2022-11-23T01:40:40;27.43;;;17.17;;
16442;SDS011;8331;51.654;14.376;2022-11-23T01:43:12;27.70;;;17.60;;
16442;SDS011;8331;51.654;14.376;2022-11-23T01:48:10;28.17;;;17.10;;
16442;SDS011;8331;51.654;14.376;2022-11-23T01:50:39;27.43;;;16.93;;
16442;SDS011;8331;51.654;14.376;2022-11-23T01:53:05;23.90;;;15.93;;
16442;SDS011;8331;51.654;14.376;2022-11-23T01:55:32;22.80;;;16.07;;
16442;SDS011;8331;51.654;14.376;2022-11-23T01:58:00;28.00;;;16.23;;
16442;SDS011;8331;51.654;14.376;2022-11-23T02:00:27;26.50;;;15.73;;
16442;SDS011;8331;51.654;14.376;2022-11-23T02:02:56;25.00;;;15.80;;
16442;SDS011;8331;51.654;14.376;2022-11-23T02:05:24;25.43;;;15.97;;
16442;SDS011;8331;51.654;14.376;2022-11-23T02:07:53;24.30;;;15.27;;
16442;SDS011;8331;51.654;14.376;2022-11-23T02:10:20;22.13;;;14.67;;
16442;SDS011;8331;51.654;14.376;2022-11-23T02:12:48;21.87;;;14.47;;
16442;SDS011;8331;51.654;14.376;2022-11-23T02:15:14;24.40;;;15.37;;
16442;SDS011;8331;51.654;14.376;2022-11-23T02:17:42;21.53;;;14.63;;
16442;SDS011;8331;51.654;14.376;2022-11-23T02:20:10;21.70;;;14.67;;
16442;SDS011;8331;51.654;14.376;2022-11-23T02:27:50;21.10;;;14.73;;
16442;SDS011;8331;51.654;14.376;2022-11-23T02:30:17;25.53;;;15.73;;
16442;SDS011;8331;51.654;14.376;2022-11-23T02:32:44;23.87;;;15.03;;
16442;SDS011;8331;51.654;14.376;2022-11-23T02:35:11;23.77;;;15.95;;
16442;SDS011;8331;51.654;14.376;2022-11-23T02:37:37;24.97;;;16.20;;
16442;SDS011;8331;51.654;14.376;2022-11-23T02:40:08;24.90;;;15.43;;
16442;SDS011;8331;51.654;14.376;2022-11-23T02:42:36;19.60;;;14.13;;
16442;SDS011;8331;51.654;14.376;2022-11-23T02:45:20;22.43;;;14.33;;
16442;SDS011;8331;51.654;14.376;2022-11-23T02:47:48;21.53;;;14.43;;
16442;SDS011;8331;51.654;14.376;2022-11-23T02:50:14;23.00;;;14.23;;
16442;SDS011;8331;51.654;14.376;2022-11-23T02:52:41;22.30;;;14.87;;
16442;SDS011;8331;51.654;14.376;2022-11-23T02:55:08;20.37;;;14.17;;
16442;SDS011;8331;51.654;14.376;2022-11-23T02:57:35;20.77;;;14.67;;
16442;SDS011;8331;51.654;14.376;2022-11-23T03:00:02;18.23;;;13.20;;
16442;SDS011;8331;51.654;14.376;2022-11-23T03:02:29;21.80;;;14.07;;
16442;SDS011;8331;51.654;14.376;2022-11-23T03:04:55;22.57;;;14.47;;
16442;SDS011;8331;51.654;14.376;2022-11-23T03:07:22;23.90;;;14.67;;
16442;SDS011;8331;51.654;14.376;2022-11-23T03:09:49;20.30;;;13.90;;
16442;SDS011;8331;51.654;14.376;2022-11-23T03:12:16;24.27;;;15.40;;
16442;SDS011;8331;51.654;14.376;2022-11-23T03:14:43;21.43;;;14.60;;
16442;SDS011;8331;51.654;14.376;2022-11-23T03:17:10;22.37;;;13.70;;
16442;SDS011;8331;51.654;14.376;2022-11-23T03:19:39;23.03;;;14.67;;
16442;SDS011;8331;51.654;14.376;2022-11-23T03:22:06;21.13;;;13.97;;
16442;SDS011;8331;51.654;14.376;2022-11-23T03:24:33;21.87;;;14.23;;
16442;SDS011;8331;51.654;14.376;2022-11-23T03:27:02;20.37;;;13.33;;
16442;SDS011;8331;51.654;14.376;2022-11-23T03:29:28;23.10;;;14.43;;
16442;SDS011;8331;51.654;14.376;2022-11-23T03:31:58;20.93;;;14.50;;
16442;SDS011;8331;51.654;14.376;2022-11-23T03:34:24;21.60;;;13.60;;
16442;SDS011;8331;51.654;14.376;2022-11-23T03:36:51;20.33;;;14.27;;
16442;SDS011;8331;51.654;14.376;2022-11-23T03:39:18;20.57;;;13.93;;
16442;SDS011;8331;51.654;14.376;2022-11-23T03:42:16;23.60;;;14.33;;
16442;SDS011;8331;51.654;14.376;2022-11-23T03:44:44;21.63;;;13.83;;
16442;SDS011;8331;51.654;14.376;2022-11-23T03:47:11;24.00;;;14.93;;
16442;SDS011;8331;51.654;14.376;2022-11-23T03:49:37;24.83;;;14.83;;
16442;SDS011;8331;51.654;14.376;2022-11-23T03:52:04;19.00;;;13.03;;
16442;SDS011;8331;51.654;14.376;2022-11-23T03:54:31;20.03;;;13.03;;
16442;SDS011;8331;51.654;14.376;2022-11-23T03:56:57;21.27;;;13.80;;
16442;SDS011;8331;51.654;14.376;2022-11-23T03:59:24;20.67;;;13.90;;
16442;SDS011;8331;51.654;14.376;2022-11-23T04:01:51;21.10;;;14.60;;
16442;SDS011;8331;51.654;14.376;2022-11-23T04:04:23;21.00;;;13.85;;
16442;SDS011;8331;51.654;14.376;2022-11-23T04:07:05;23.43;;;14.53;;
16442;SDS011;8331;51.654;14.376;2022-11-23T04:09:37;21.30;;;14.57;;
16442;SDS011;8331;51.654;14.376;2022-11-23T04:12:04;22.67;;;14.23;;
16442;SDS011;8331;51.654;14.376;2022-11-23T04:14:31;20.63;;;13.63;;
16442;SDS011;8331;51.654;14.376;2022-11-23T04:16:58;20.03;;;14.10;;
16442;SDS011;8331;51.654;14.376;2022-11-23T04:19:25;23.73;;;13.87;;
16442;SDS011;8331;51.654;14.376;2022-11-23T04:21:51;21.30;;;13.53;;
16442;SDS011;8331;51.654;14.376;2022-11-23T04:24:19;24.40;;;14.47;;
16442;SDS011;8331;51.654;14.376;2022-11-23T04:26:46;20.57;;;14.03;;
16442;SDS011;8331;51.654;14.376;2022-11-23T04:29:13;21.83;;;13.90;;
16442;SDS011;8331;51.654;14.376;2022-11-23T04:31:44;24.30;;;14.03;;
16442;SDS011;8331;51.654;14.376;2022-11-23T04:34:15;24.77;;;15.03;;
16442;SDS011;8331;51.654;14.376;2022-11-23T04:36:41;25.20;;;14.53;;
16442;SDS011;8331;51.654;14.376;2022-11-23T04:39:10;23.10;;;14.37;;
16442;SDS011;8331;51.654;14.376;2022-11-23T04:42:00;22.83;;;14.13;;
16442;SDS011;8331;51.654;14.376;2022-11-23T04:44:28;26.20;;;14.80;;
16442;SDS011;8331;51.654;14.376;2022-11-23T04:47:00;22.77;;;14.30;;
16442;SDS011;8331;51.654;14.376;2022-11-23T04:49:27;21.23;;;14.07;;
16442;SDS011;8331;51.654;14.376;2022-11-23T04:51:53;23.93;;;14.67;;
16442;SDS011;8331;51.654;14.376;2022-11-23T04:54:26;22.00;;;15.10;;
16442;SDS011;8331;51.654;14.376;2022-11-23T04:56:56;23.13;;;14.30;;
16442;SDS011;8331;51.654;14.376;2022-11-23T04:59:23;22.83;;;14.07;;
16442;SDS011;8331;51.654;14.376;2022-11-23T05:01:50;23.73;;;13.90;;
16442;SDS011;8331;51.654;14.376;2022-11-23T05:04:40;20.53;;;14.63;;
16442;SDS011;8331;51.654;14.376;2022-11-23T05:07:07;21.87;;;14.57;;
16442;SDS011;8331;51.654;14.376;2022-11-23T05:09:35;25.93;;;14.60;;
16442;SDS011;8331;51.654;14.376;2022-11-23T05:12:10;24.67;;;15.77;;
16442;SDS011;8331;51.654;14.376;2022-11-23T05:14:38;22.93;;;14.80;;
16442;SDS011;8331;51.654;14.376;2022-11-23T05:17:06;24.47;;;14.07;;
16442;SDS011;8331;51.654;14.376;2022-11-23T05:19:33;22.50;;;14.33;;
16442;SDS011;8331;51.654;14.376;2022-11-23T05:22:01;21.03;;;14.50;;
16442;SDS011;8331;51.654;14.376;2022-11-23T05:24:29;24.80;;;14.03;;
16442;SDS011;8331;51.654;14.376;2022-11-23T05:27:04;23.57;;;14.57;;
16442;SDS011;8331;51.654;14.376;2022-11-23T05:29:30;22.67;;;14.30;;
16442;SDS011;8331;51.654;14.376;2022-11-23T05:31:57;21.03;;;14.50;;
16442;SDS011;8331;51.654;14.376;2022-11-23T05:34:24;22.57;;;13.80;;
16442;SDS011;8331;51.654;14.376;2022-11-23T05:36:50;25.47;;;15.70;;
16442;SDS011;8331;51.654;14.376;2022-11-23T05:39:17;22.97;;;15.37;;
16442;SDS011;8331;51.654;14.376;2022-11-23T05:41:48;24.93;;;16.27;;
16442;SDS011;8331;51.654;14.376;2022-11-23T05:44:27;25.53;;;16.30;;
16442;SDS011;8331;51.654;14.376;2022-11-23T05:46:54;25.30;;;15.33;;
16442;SDS011;8331;51.654;14.376;2022-11-23T05:49:21;26.50;;;16.40;;
16442;SDS011;8331;51.654;14.376;2022-11-23T05:51:47;23.50;;;15.33;;
16442;SDS011;8331;51.654;14.376;2022-11-23T05:54:15;23.07;;;14.83;;
16442;SDS011;8331;51.654;14.376;2022-11-23T05:56:49;25.63;;;14.70;;
16442;SDS011;8331;51.654;14.376;2022-11-23T05:59:20;24.53;;;15.00;;
16442;SDS011;8331;51.654;14.376;2022-11-23T06:01:51;25.07;;;15.73;;
16442;SDS011;8331;51.654;14.376;2022-11-23T06:04:25;25.03;;;15.60;;
16442;SDS011;8331;51.654;14.376;2022-11-23T06:06:54;22.37;;;15.00;;
16442;SDS011;8331;51.654;14.376;2022-11-23T06:09:22;23.00;;;14.77;;
16442;SDS011;8331;51.654;14.376;2022-11-23T06:11:51;20.80;;;13.50;;
16442;SDS011;8331;51.654;14.376;2022-11-23T06:14:19;22.77;;;14.47;;
16442;SDS011;8331;51.654;14.376;2022-11-23T06:16:46;21.53;;;14.10;;
16442;SDS011;8331;51.654;14.376;2022-11-23T06:19:26;19.60;;;13.40;;
16442;SDS011;8331;51.654;14.376;2022-11-23T06:21:56;23.50;;;15.67;;
16442;SDS011;8331;51.654;14.376;2022-11-23T06:24:24;21.07;;;14.57;;
16442;SDS011;8331;51.654;14.376;2022-11-23T06:27:11;21.97;;;14.10;;
16442;SDS011;8331;51.654;14.376;2022-11-23T06:29:44;22.50;;;14.40;;
16442;SDS011;8331;51.654;14.376;2022-11-23T06:32:12;25.57;;;14.97;;
16442;SDS011;8331;51.654;14.376;2022-11-23T06:34:38;23.27;;;14.50;;
16442;SDS011;8331;51.654;14.376;2022-11-23T06:37:05;22.87;;;14.67;;
16442;SDS011;8331;51.654;14.376;2022-11-23T06:39:32;24.10;;;16.27;;
16442;SDS011;8331;51.654;14.376;2022-11-23T06:42:00;20.93;;;14.80;;
16442;SDS011;8331;51.654;14.376;2022-11-23T06:44:46;22.13;;;13.97;;
16442;SDS011;8331;51.654;14.376;2022-11-23T06:47:13;21.03;;;14.77;;
16442;SDS011;8331;51.654;14.376;2022-11-23T06:49:44;21.80;;;14.70;;
16442;SDS011;8331;51.654;14.376;2022-11-23T06:52:17;24.87;;;15.83;;
16442;SDS011;8331;51.654;14.376;2022-11-23T06:54:44;26.10;;;16.40;;
16442;SDS011;8331;51.654;14.376;2022-11-23T06:57:12;22.43;;;14.80;;
16442;SDS011;8331;51.654;14.376;2022-11-23T06:59:39;22.93;;;14.97;;
16442;SDS011;8331;51.654;14.376;2022-11-23T07:02:11;22.40;;;14.17;;
16442;SDS011;8331;51.654;14.376;2022-11-23T07:04:39;21.57;;;14.03;;
16442;SDS011;8331;51.654;14.376;2022-11-23T07:07:12;21.73;;;13.40;;
16442;SDS011;8331;51.654;14.376;2022-11-23T07:09:46;23.07;;;14.30;;
16442;SDS011;8331;51.654;14.376;2022-11-23T07:12:27;23.90;;;14.77;;
16442;SDS011;8331;51.654;14.376;2022-11-23T07:14:54;21.03;;;14.37;;
16442;SDS011;8331;51.654;14.376;2022-11-23T07:17:22;22.03;;;14.07;;
16442;SDS011;8331;51.654;14.376;2022-11-23T07:19:48;21.17;;;13.37;;
16442;SDS011;8331;51.654;14.376;2022-11-23T07:22:15;17.00;;;12.37;;
16442;SDS011;8331;51.654;14.376;2022-11-23T07:24:42;21.07;;;13.83;;
16442;SDS011;8331;51.654;14.376;2022-11-23T07:27:12;19.70;;;13.30;;
16442;SDS011;8331;51.654;14.376;2022-11-23T07:29:38;22.30;;;14.53;;
16442;SDS011;8331;51.654;14.376;2022-11-23T07:32:05;21.17;;;14.40;;
16442;SDS011;8331;51.654;14.376;2022-11-23T07:34:34;23.00;;;15.23;;
16442;SDS011;8331;51.654;14.376;2022-11-23T07:37:00;23.73;;;15.40;;
16442;SDS011;8331;51.654;14.376;2022-11-23T07:39:31;23.03;;;14.40;;
16442;SDS011;8331;51.654;14.376;2022-11-23T07:42:18;20.27;;;14.73;;
16442;SDS011;8331;51.654;14.376;2022-11-23T07:45:05;23.27;;;14.17;;
16442;SDS011;8331;51.654;14.376;2022-11-23T07:47:34;24.10;;;14.77;;
16442;SDS011;8331;51.654;14.376;2022-11-23T07:50:01;22.47;;;15.00;;
16442;SDS011;8331;51.654;14.376;2022-11-23T07:52:27;20.53;;;13.27;;
16442;SDS011;8331;51.654;14.376;2022-11-23T07:54:54;19.43;;;13.70;;
16442;SDS011;8331;51.654;14.376;2022-11-23T07:57:20;21.50;;;15.60;;
16442;SDS011;8331;51.654;14.376;2022-11-23T07:59:47;20.37;;;14.07;;
16442;SDS011;8331;51.654;14.376;2022-11-23T08:02:14;22.13;;;14.47;;
16442;SDS011;8331;51.654;14.376;2022-11-23T08:04:40;22.00;;;14.83;;
16442;SDS011;8331;51.654;14.376;2022-11-23T08:07:07;21.73;;;13.97;;
16442;SDS011;8331;51.654;14.376;2022-11-23T08:09:33;26.17;;;18.55;;
16442;SDS011;8331;51.654;14.376;2022-11-23T08:12:00;26.03;;;15.90;;
16442;SDS011;8331;51.654;14.376;2022-11-23T08:14:27;22.60;;;14.47;;
16442;SDS011;8331;51.654;14.376;2022-11-23T08:16:53;21.63;;;14.63;;
16442;SDS011;8331;51.654;14.376;2022-11-23T08:19:20;22.67;;;14.40;;
16442;SDS011;8331;51.654;14.376;2022-11-23T08:21:46;23.77;;;14.63;;
16442;SDS011;8331;51.654;14.376;2022-11-23T08:24:13;21.13;;;13.73;;
16442;SDS011;8331;51.654;14.376;2022-11-23T08:26:39;23.97;;;14.30;;
16442;SDS011;8331;51.654;14.376;2022-11-23T08:29:06;20.97;;;13.77;;
16442;SDS011;8331;51.654;14.376;2022-11-23T08:31:32;18.60;;;13.70;;
16442;SDS011;8331;51.654;14.376;2022-11-23T08:33:59;19.53;;;13.63;;
16442;SDS011;8331;51.654;14.376;2022-11-23T08:36:29;22.70;;;14.13;;
16442;SDS011;8331;51.654;14.376;2022-11-23T08:38:55;20.33;;;14.10;;
16442;SDS011;8331;51.654;14.376;2022-11-23T08:41:22;21.43;;;14.23;;
16442;SDS011;8331;51.654;14.376;2022-11-23T08:43:49;21.53;;;14.70;;
16442;SDS011;8331;51.654;14.376;2022-11-23T08:46:15;21.80;;;14.27;;
16442;SDS011;8331;51.654;14.376;2022-11-23T08:48:42;20.00;;;13.30;;
16442;SDS011;8331;51.654;14.376;2022-11-23T08:51:09;23.07;;;15.63;;
16442;SDS011;8331;51.654;14.376;2022-11-23T08:53:35;20.50;;;14.00;;
16442;SDS011;8331;51.654;14.376;2022-11-23T08:56:03;22.67;;;14.43;;
16442;SDS011;8331;51.654;14.376;2022-11-23T08:58:30;21.40;;;15.47;;
16442;SDS011;8331;51.654;14.376;2022-11-23T09:00:56;24.03;;;15.00;;
16442;SDS011;8331;51.654;14.376;2022-11-23T09:03:23;26.03;;;15.03;;
16442;SDS011;8331;51.654;14.376;2022-11-23T09:05:49;20.40;;;14.57;;
16442;SDS011;8331;51.654;14.376;2022-11-23T09:08:20;24.83;;;14.53;;
16442;SDS011;8331;51.654;14.376;2022-11-23T09:10:46;25.57;;;16.13;;
16442;SDS011;8331;51.654;14.376;2022-11-23T09:13:13;23.00;;;14.50;;
16442;SDS011;8331;51.654;14.376;2022-11-23T09:15:39;25.93;;;16.17;;
16442;SDS011;8331;51.654;14.376;2022-11-23T09:18:06;21.10;;;15.00;;
16442;SDS011;8331;51.654;14.376;2022-11-23T09:20:32;25.17;;;15.83;;
16442;SDS011;8331;51.654;14.376;2022-11-23T09:22:59;22.83;;;16.87;;
16442;SDS011;8331;51.654;14.376;2022-11-23T09:25:25;22.93;;;15.97;;
16442;SDS011;8331;51.654;14.376;2022-11-23T09:27:55;30.50;;;18.87;;
16442;SDS011;8331;51.654;14.376;2022-11-23T09:30:22;30.40;;;17.67;;
16442;SDS011;8331;51.654;14.376;2022-11-23T09:32:48;28.97;;;18.97;;
16442;SDS011;8331;51.654;14.376;2022-11-23T09:35:15;28.77;;;19.63;;
16442;SDS011;8331;51.654;14.376;2022-11-23T09:37:41;31.13;;;20.43;;
16442;SDS011;8331;51.654;14.376;2022-11-23T09:40:09;23.70;;;17.40;;
16442;SDS011;8331;51.654;14.376;2022-11-23T09:42:54;36.70;;;23.33;;
16442;SDS011;8331;51.654;14.376;2022-11-23T09:45:29;24.80;;;15.83;;
16442;SDS011;8331;51.654;14.376;2022-11-23T09:50:48;26.77;;;16.80;;
16442;SDS011;8331;51.654;14.376;2022-11-23T09:53:21;21.70;;;14.70;;
16442;SDS011;8331;51.654;14.376;2022-11-23T09:55:50;21.23;;;14.80;;
16442;SDS011;8331;51.654;14.376;2022-11-23T09:58:18;26.33;;;17.97;;
16442;SDS011;8331;51.654;14.376;2022-11-23T10:03:17;23.67;;;15.97;;
16442;SDS011;8331;51.654;14.376;2022-11-23T10:10:59;22.47;;;14.63;;
16442;SDS011;8331;51.654;14.376;2022-11-23T10:13:42;19.97;;;13.87;;
16442;SDS011;8331;51.654;14.376;2022-11-23T10:18:57;17.97;;;13.40;;
16442;SDS011;8331;51.654;14.376;2022-11-23T10:24:04;22.17;;;14.30;;
16442;SDS011;8331;51.654;14.376;2022-11-23T10:26:37;21.90;;;14.17;;
16442;SDS011;8331;51.654;14.376;2022-11-23T10:29:14;23.80;;;16.20;;
16442;SDS011;8331;51.654;14.376;2022-11-23T10:31:45;19.93;;;14.30;;
16442;SDS011;8331;51.654;14.376;2022-11-23T10:34:18;24.00;;;14.40;;
16442;SDS011;8331;51.654;14.376;2022-11-23T10:36:46;20.67;;;14.67;;
16442;SDS011;8331;51.654;14.376;2022-11-23T10:41:39;23.27;;;15.33;;
16442;SDS011;8331;51.654;14.376;2022-11-23T10:44:14;23.47;;;15.87;;
16442;SDS011;8331;51.654;14.376;2022-11-23T10:46:41;20.33;;;13.70;;
16442;SDS011;8331;51.654;14.376;2022-11-23T10:49:24;18.03;;;13.17;;
16442;SDS011;8331;51.654;14.376;2022-11-23T10:51:52;19.70;;;13.47;;
16442;SDS011;8331;51.654;14.376;2022-11-23T10:54:21;17.73;;;13.00;;
16442;SDS011;8331;51.654;14.376;2022-11-23T10:56:49;17.70;;;13.80;;
16442;SDS011;8331;51.654;14.376;2022-11-23T10:59:32;23.17;;;16.50;;
16442;SDS011;8331;51.654;14.376;2022-11-23T11:04:26;16.27;;;12.47;;
16442;SDS011;8331;51.654;14.376;2022-11-23T11:07:08;18.60;;;13.87;;
16442;SDS011;8331;51.654;14.376;2022-11-23T11:09:35;18.17;;;13.10;;
16442;SDS011;8331;51.654;14.376;2022-11-23T11:12:02;18.07;;;12.97;;
16442;SDS011;8331;51.654;14.376;2022-11-23T11:14:28;17.97;;;13.27;;
16442;SDS011;8331;51.654;14.376;2022-11-23T11:17:09;19.10;;;15.93;;
16442;SDS011;8331;51.654;14.376;2022-11-23T11:19:49;17.67;;;12.73;;
16442;SDS011;8331;51.654;14.376;2022-11-23T11:22:26;17.80;;;13.50;;
16442;SDS011;8331;51.654;14.376;2022-11-23T11:24:54;16.57;;;13.20;;
16442;SDS011;8331;51.654;14.376;2022-11-23T11:27:22;13.07;;;11.50;;
16442;SDS011;8331;51.654;14.376;2022-11-23T11:30:05;13.03;;;11.00;;
16442;SDS011;8331;51.654;14.376;2022-11-23T11:35:45;18.33;;;12.00;;
16442;SDS011;8331;51.654;14.376;2022-11-23T11:37:47;12.87;;;11.30;;
16442;SDS011;8331;51.654;14.376;2022-11-23T11:40:28;14.60;;;11.27;;
16442;SDS011;8331;51.654;14.376;2022-11-23T11:43:04;17.50;;;11.93;;
16442;SDS011;8331;51.654;14.376;2022-11-23T11:45:36;13.80;;;11.20;;
16442;SDS011;8331;51.654;14.376;2022-11-23T11:50:31;13.67;;;10.93;;
16442;SDS011;8331;51.654;14.376;2022-11-23T11:53:03;13.43;;;11.07;;
16442;SDS011;8331;51.654;14.376;2022-11-23T11:55:50;12.37;;;10.43;;
16442;SDS011;8331;51.654;14.376;2022-11-23T11:58:18;18.10;;;11.63;;
16442;SDS011;8331;51.654;14.376;2022-11-23T12:00:46;12.40;;;11.10;;
16442;SDS011;8331;51.654;14.376;2022-11-23T12:03:18;15.17;;;11.67;;
16442;SDS011;8331;51.654;14.376;2022-11-23T12:05:49;14.37;;;10.97;;
16442;SDS011;8331;51.654;14.376;2022-11-23T12:10:58;14.53;;;10.87;;
16442;SDS011;8331;51.654;14.376;2022-11-23T12:13:34;15.43;;;11.17;;
16442;SDS011;8331;51.654;14.376;2022-11-23T12:16:07;13.23;;;10.37;;
16442;SDS011;8331;51.654;14.376;2022-11-23T12:24:01;14.13;;;11.10;;
16442;SDS011;8331;51.654;14.376;2022-11-23T12:29:23;14.27;;;10.80;;
16442;SDS011;8331;51.654;14.376;2022-11-23T12:34:41;15.93;;;11.27;;
16442;SDS011;8331;51.654;14.376;2022-11-23T12:42:23;13.17;;;10.90;;
16442;SDS011;8331;51.654;14.376;2022-11-23T12:47:26;14.33;;;10.87;;
16442;SDS011;8331;51.654;14.376;2022-11-23T12:50:06;13.87;;;10.63;;
16442;SDS011;8331;51.654;14.376;2022-11-23T12:57:48;11.50;;;10.20;;
16442;SDS011;8331;51.654;14.376;2022-11-23T13:00:19;13.70;;;11.57;;
16442;SDS011;8331;51.654;14.376;2022-11-23T13:18:28;16.93;;;12.33;;
16442;SDS011;8331;51.654;14.376;2022-11-23T13:23:27;13.83;;;11.50;;
16442;SDS011;8331;51.654;14.376;2022-11-23T13:26:12;14.37;;;11.20;;
16442;SDS011;8331;51.654;14.376;2022-11-23T13:28:42;12.27;;;9.90;;
16442;SDS011;8331;51.654;14.376;2022-11-23T13:33:41;12.30;;;9.90;;
16442;SDS011;8331;51.654;14.376;2022-11-23T13:36:09;11.40;;;9.50;;
16442;SDS011;8331;51.654;14.376;2022-11-23T13:38:43;12.00;;;10.70;;
16442;SDS011;8331;51.654;14.376;2022-11-23T13:46:44;12.37;;;9.47;;
16442;SDS011;8331;51.654;14.376;2022-11-23T13:52:03;11.27;;;9.47;;
16442;SDS011;8331;51.654;14.376;2022-11-23T13:54:29;10.47;;;8.70;;
16442;SDS011;8331;51.654;14.376;2022-11-23T13:56:58;10.23;;;9.13;;
16442;SDS011;8331;51.654;14.376;2022-11-23T13:59:28;12.50;;;9.90;;
16442;SDS011;8331;51.654;14.376;2022-11-23T14:04:26;10.17;;;8.93;;
16442;SDS011;8331;51.654;14.376;2022-11-23T14:06:53;11.20;;;9.67;;
16442;SDS011;8331;51.654;14.376;2022-11-23T14:09:34;10.27;;;9.07;;
16442;SDS011;8331;51.654;14.376;2022-11-23T14:17:37;10.07;;;9.03;;
16442;SDS011;8331;51.654;14.376;2022-11-23T14:25:17;10.10;;;9.07;;
16442;SDS011;8331;51.654;14.376;2022-11-23T14:27:54;11.50;;;9.67;;
16442;SDS011;8331;51.654;14.376;2022-11-23T14:31:08;10.53;;;9.13;;
16442;SDS011;8331;51.654;14.376;2022-11-23T14:33:20;11.83;;;10.13;;
16442;SDS011;8331;51.654;14.376;2022-11-23T14:41:08;10.20;;;9.20;;
16442;SDS011;8331;51.654;14.376;2022-11-23T14:43:39;12.93;;;9.37;;
16442;SDS011;8331;51.654;14.376;2022-11-23T14:46:13;14.57;;;10.17;;
16442;SDS011;8331;51.654;14.376;2022-11-23T14:48:40;13.03;;;10.70;;
16442;SDS011;8331;51.654;14.376;2022-11-23T14:51:17;12.03;;;9.87;;
16442;SDS011;8331;51.654;14.376;2022-11-23T14:53:48;15.93;;;11.50;;
16442;SDS011;8331;51.654;14.376;2022-11-23T14:56:24;15.87;;;12.20;;
16442;SDS011;8331;51.654;14.376;2022-11-23T14:58:53;11.73;;;10.53;;
16442;SDS011;8331;51.654;14.376;2022-11-23T15:01:20;11.97;;;10.37;;
16442;SDS011;8331;51.654;14.376;2022-11-23T15:03:55;12.77;;;10.87;;
16442;SDS011;8331;51.654;14.376;2022-11-23T15:06:23;11.17;;;9.77;;
16442;SDS011;8331;51.654;14.376;2022-11-23T15:08:53;12.43;;;10.37;;
16442;SDS011;8331;51.654;14.376;2022-11-23T15:11:25;13.87;;;10.77;;
16442;SDS011;8331;51.654;14.376;2022-11-23T15:13:53;11.67;;;9.77;;
16442;SDS011;8331;51.654;14.376;2022-11-23T15:16:22;10.50;;;9.43;;
16442;SDS011;8331;51.654;14.376;2022-11-23T15:18:49;11.57;;;9.57;;
16442;SDS011;8331;51.654;14.376;2022-11-23T15:21:18;14.67;;;10.80;;
16442;SDS011;8331;51.654;14.376;2022-11-23T15:23:55;12.73;;;10.60;;
16442;SDS011;8331;51.654;14.376;2022-11-23T15:26:27;11.80;;;10.47;;
16442;SDS011;8331;51.654;14.376;2022-11-23T15:29:30;12.73;;;10.27;;
16442;SDS011;8331;51.654;14.376;2022-11-23T15:31:57;12.83;;;10.80;;
16442;SDS011;8331;51.654;14.376;2022-11-23T15:34:44;11.03;;;9.80;;
16442;SDS011;8331;51.654;14.376;2022-11-23T15:37:11;13.73;;;11.30;;
16442;SDS011;8331;51.654;14.376;2022-11-23T15:39:38;14.77;;;10.53;;
16442;SDS011;8331;51.654;14.376;2022-11-23T15:42:04;13.90;;;11.67;;
16442;SDS011;8331;51.654;14.376;2022-11-23T15:44:31;14.37;;;11.60;;
16442;SDS011;8331;51.654;14.376;2022-11-23T15:46:59;14.03;;;11.70;;
16442;SDS011;8331;51.654;14.376;2022-11-23T15:49:26;17.00;;;13.00;;
16442;SDS011;8331;51.654;14.376;2022-11-23T15:51:57;11.97;;;10.67;;
16442;SDS011;8331;51.654;14.376;2022-11-23T15:54:25;15.70;;;11.77;;
16442;SDS011;8331;51.654;14.376;2022-11-23T15:56:53;16.80;;;13.63;;
16442;SDS011;8331;51.654;14.376;2022-11-23T16:01:57;17.73;;;13.43;;
16442;SDS011;8331;51.654;14.376;2022-11-23T16:06:51;13.97;;;11.77;;
16442;SDS011;8331;51.654;14.376;2022-11-23T16:12:23;15.53;;;12.70;;
16442;SDS011;8331;51.654;14.376;2022-11-23T16:17:37;13.97;;;11.50;;
16442;SDS011;8331;51.654;14.376;2022-11-23T16:20:13;14.87;;;11.63;;
16442;SDS011;8331;51.654;14.376;2022-11-23T16:22:39;15.97;;;11.80;;
16442;SDS011;8331;51.654;14.376;2022-11-23T16:25:27;15.60;;;11.87;;
16442;SDS011;8331;51.654;14.376;2022-11-23T16:28:04;18.27;;;13.03;;
16442;SDS011;8331;51.654;14.376;2022-11-23T16:30:36;13.17;;;11.53;;
16442;SDS011;8331;51.654;14.376;2022-11-23T16:33:03;15.53;;;12.10;;
16442;SDS011;8331;51.654;14.376;2022-11-23T16:35:30;14.47;;;12.23;;
16442;SDS011;8331;51.654;14.376;2022-11-23T16:37:56;14.70;;;12.13;;